Time,TemperatureF,DewpointF,PressureIn,WindDirection,WindDirectionDegrees,WindSpeedMPH,WindSpeedGustMPH,Humidity,HourlyPrecipIn,Conditions,Clouds,dailyrainin,SoftwareType,DateUTC
2013-03-07 00:00:00,29.5,24.1,30.09,NNW,344,0.0,0.0,80,0.00,RA,,0.00,WeatherDisplay:10.37,2013-03-07 05:00:00,
2013-03-07 00:02:00,29.5,24.1,30.09,NNW,344,0.0,0.0,80,0.00,RA,,0.00,WeatherDisplay:10.37,2013-03-07 05:02:00,
2013-03-07 00:07:00,29.3,23.9,30.09,NNW,344,0.0,0.0,80,0.00,RA,,0.00,WeatherDisplay:10.37,2013-03-07 05:07:00,
2013-03-07 00:12:00,29.0,23.6,30.09,NNW,344,0.0,0.0,80,0.00,CLR,,0.00,WeatherDisplay:10.37,2013-03-07 05:12:00,
2013-03-07 00:17:00,28.7,23.3,30.09,NNW,344,0.0,0.0,80,0.00,CLR,,0.00,WeatherDisplay:10.37,2013-03-07 05:17:00,
2013-03-07 00:22:00,28.5,23.4,30.10,NNW,344,0.0,0.0,81,0.00,CLR,,0.00,WeatherDisplay:10.37,2013-03-07 05:22:00,
2013-03-07 00:27:00,28.2,23.4,30.10,NNW,344,0.0,0.0,82,0.00,CLR,,0.00,WeatherDisplay:10.37,2013-03-07 05:27:00,
2013-03-07 00:32:00,27.9,23.4,30.10,NNW,344,2.3,2.3,83,0.00,CLR,,0.00,WeatherDisplay:10.37,2013-03-07 05:32:00,
2013-03-07 00:37:00,27.8,23.3,30.09,NNW,344,1.1,1.1,83,0.00,CLR,,0.00,WeatherDisplay:10.37,2013-03-07 05:37:00,
2013-03-07 00:42:00,27.8,23.6,30.09,NNW,344,0.0,0.0,84,0.00,CLR,,0.00,WeatherDisplay:10.37,2013-03-07 05:42:00,
2013-03-07 00:47:00,27.6,23.1,30.10,NNW,344,0.0,0.0,83,0.00,CLR,,0.00,WeatherDisplay:10.37,2013-03-07 05:47:00,
2013-03-07 00:52:00,27.5,23.0,30.10,NNW,344,0.0,0.0,83,0.00,CLR,,0.00,WeatherDisplay:10.37,2013-03-07 05:52:00,
2013-03-07 00:57:00,27.3,23.1,30.10,NNW,344,0.0,0.0,84,0.00,CLR,,0.00,WeatherDisplay:10.37,2013-03-07 05:57:00,
2013-03-07 01:02:00,27.0,22.8,30.10,NNW,344,0.0,0.0,84,0.00,CLR,,0.00,WeatherDisplay:10.37,2013-03-07 06:02:00,
2013-03-07 01:07:00,26.9,22.7,30.10,NNW,344,0.0,0.0,84,0.00,CLR,,0.00,WeatherDisplay:10.37,2013-03-07 06:07:00,
2013-03-07 01:12:00,26.9,23.0,30.10,NNW,344,1.1,0.0,85,0.00,CLR,,0.00,WeatherDisplay:10.37,2013-03-07 06:12:00,
2013-03-07 01:17:00,27.0,23.1,30.10,NNW,344,0.0,0.0,85,0.00,CLR,,0.00,WeatherDisplay:10.37,2013-03-07 06:17:00,
2013-03-07 01:22:00,27.0,23.1,30.10,NNW,344,0.0,0.0,85,0.00,CLR,,0.00,WeatherDisplay:10.37,2013-03-07 06:22:00,
2013-03-07 01:27:00,26.9,23.0,30.10,NNW,344,0.0,0.0,85,0.00,CLR,,0.00,WeatherDisplay:10.37,2013-03-07 06:27:00,
2013-03-07 01:32:00,26.7,22.8,30.10,NNW,344,0.0,0.0,85,0.00,CLR,,0.00,WeatherDisplay:10.37,2013-03-07 06:32:00,
2013-03-07 01:37:00,26.7,22.8,30.10,NNW,344,0.0,0.0,85,0.00,CLR,,0.00,WeatherDisplay:10.37,2013-03-07 06:37:00,
2013-03-07 01:42:00,26.6,22.7,30.10,NNW,344,0.0,0.0,85,0.00,CLR,,0.00,WeatherDisplay:10.37,2013-03-07 06:42:00,
2013-03-07 01:47:00,26.6,23.0,30.10,NNW,344,0.0,0.0,86,0.00,CLR,,0.00,WeatherDisplay:10.37,2013-03-07 06:47:00,
2013-03-07 01:52:00,26.6,23.0,30.10,NNW,344,0.0,0.0,86,0.00,CLR,,0.00,WeatherDisplay:10.37,2013-03-07 06:52:00,
2013-03-07 01:57:00,26.6,23.0,30.10,NNW,344,0.0,0.0,86,0.00,CLR,,0.00,WeatherDisplay:10.37,2013-03-07 06:57:00,
2013-03-07 02:02:00,26.4,22.8,30.10,NNW,344,0.0,0.0,86,0.00,CLR,,0.00,WeatherDisplay:10.37,2013-03-07 07:02:00,
2013-03-07 02:07:00,26.4,22.8,30.10,NNW,344,0.0,0.0,86,0.00,CLR,,0.00,WeatherDisplay:10.37,2013-03-07 07:07:00,
2013-03-07 02:12:00,26.3,22.7,30.10,NNW,344,0.0,0.0,86,0.00,CLR,,0.00,WeatherDisplay:10.37,2013-03-07 07:12:00,
2013-03-07 02:17:00,26.4,23.1,30.10,NNW,344,1.1,0.0,87,0.00,CLR,,0.00,WeatherDisplay:10.37,2013-03-07 07:17:00,
2013-03-07 02:22:00,26.6,23.3,30.10,NNW,344,0.0,0.0,87,0.00,CLR,,0.00,WeatherDisplay:10.37,2013-03-07 07:22:00,
2013-03-07 02:27:00,26.6,23.3,30.10,NNW,344,0.0,0.0,87,0.00,CLR,,0.00,WeatherDisplay:10.37,2013-03-07 07:27:00,
2013-03-07 02:32:00,26.6,23.0,30.10,NNW,344,0.0,0.0,86,0.00,CLR,,0.00,WeatherDisplay:10.37,2013-03-07 07:32:00,
2013-03-07 02:37:00,26.7,23.1,30.10,NNW,344,2.3,2.3,86,0.00,CLR,,0.00,WeatherDisplay:10.37,2013-03-07 07:37:00,
2013-03-07 02:43:00,26.7,23.1,30.10,NNW,344,0.0,0.0,86,0.00,CLR,,0.00,WeatherDisplay:10.37,2013-03-07 07:43:00,
2013-03-07 02:48:00,26.9,23.3,30.10,NNW,344,0.0,0.0,86,0.00,CLR,,0.00,WeatherDisplay:10.37,2013-03-07 07:48:00,
2013-03-07 02:53:00,26.9,23.0,30.10,NNW,344,0.0,0.0,85,0.00,CLR,,0.00,WeatherDisplay:10.37,2013-03-07 07:53:00,
2013-03-07 02:58:00,26.7,22.8,30.10,NNW,344,0.0,0.0,85,0.00,CLR,,0.00,WeatherDisplay:10.37,2013-03-07 07:58:00,
2013-03-07 03:03:00,26.7,22.8,30.11,NNW,344,0.0,0.0,85,0.00,CLR,,0.00,WeatherDisplay:10.37,2013-03-07 08:03:00,
2013-03-07 03:08:00,26.7,22.8,30.11,NNW,344,0.0,0.0,85,0.00,CLR,,0.00,WeatherDisplay:10.37,2013-03-07 08:08:00,
2013-03-07 03:13:00,26.6,22.7,30.11,NNW,344,0.0,0.0,85,0.00,CLR,,0.00,WeatherDisplay:10.37,2013-03-07 08:13:00,
2013-03-07 03:18:00,26.3,22.7,30.11,NNW,344,0.0,0.0,86,0.00,CLR,,0.00,WeatherDisplay:10.37,2013-03-07 08:18:00,
2013-03-07 03:23:00,26.3,22.7,30.11,NNW,344,0.0,0.0,86,0.00,CLR,,0.00,WeatherDisplay:10.37,2013-03-07 08:23:00,
2013-03-07 03:28:00,26.3,23.0,30.12,NNW,344,0.0,0.0,87,0.00,CLR,,0.00,WeatherDisplay:10.37,2013-03-07 08:28:00,
2013-03-07 03:33:00,26.3,23.0,30.12,NNW,344,1.0,1.0,87,0.00,CLR,,0.00,WeatherDisplay:10.37,2013-03-07 08:33:00,
2013-03-07 03:38:00,26.3,23.0,30.12,NNW,344,0.0,0.0,87,0.00,CLR,,0.00,WeatherDisplay:10.37,2013-03-07 08:38:00,
2013-03-07 03:43:00,26.3,23.0,30.12,NNW,344,0.0,0.0,87,0.00,CLR,,0.00,WeatherDisplay:10.37,2013-03-07 08:43:00,
2013-03-07 03:48:00,26.3,23.0,30.12,NNW,344,0.0,0.0,87,0.00,CLR,,0.00,WeatherDisplay:10.37,2013-03-07 08:48:00,
2013-03-07 03:53:00,26.3,23.0,30.12,NNW,344,1.1,0.0,87,0.00,CLR,,0.00,WeatherDisplay:10.37,2013-03-07 08:53:00,
2013-03-07 03:59:00,26.3,23.0,30.12,NNW,344,0.0,0.0,87,0.00,CLR,,0.00,WeatherDisplay:10.37,2013-03-07 08:59:00,
2013-03-07 04:04:00,26.0,22.7,30.11,NNW,344,0.0,0.0,87,0.00,CLR,,0.00,WeatherDisplay:10.37,2013-03-07 09:04:00,
2013-03-07 04:09:00,26.0,22.7,30.12,NNW,344,0.0,0.0,87,0.00,CLR,,0.00,WeatherDisplay:10.37,2013-03-07 09:09:00,
2013-03-07 04:14:00,25.8,22.5,30.12,NNW,344,0.0,0.0,87,0.00,CLR,,0.00,WeatherDisplay:10.37,2013-03-07 09:14:00,
2013-03-07 04:19:00,25.7,22.6,30.12,NNW,344,1.1,1.1,88,0.00,CLR,,0.00,WeatherDisplay:10.37,2013-03-07 09:19:00,
2013-03-07 04:24:00,25.7,22.6,30.13,NNW,344,0.0,0.0,88,0.00,CLR,,0.00,WeatherDisplay:10.37,2013-03-07 09:24:00,
2013-03-07 04:29:00,25.7,22.6,30.13,NNW,344,2.3,2.3,88,0.00,CLR,,0.00,WeatherDisplay:10.37,2013-03-07 09:29:00,
2013-03-07 04:34:00,25.8,22.7,30.13,NNW,344,1.1,0.0,88,0.00,CLR,,0.00,WeatherDisplay:10.37,2013-03-07 09:34:00,
2013-03-07 04:39:00,25.8,22.7,30.14,NNW,344,0.0,0.0,88,0.00,CLR,,0.00,WeatherDisplay:10.37,2013-03-07 09:39:00,
2013-03-07 04:44:00,25.7,22.6,30.14,NNW,344,1.1,1.1,88,0.00,CLR,,0.00,WeatherDisplay:10.37,2013-03-07 09:44:00,
2013-03-07 04:49:00,25.8,23.0,30.14,NNW,344,0.0,0.0,89,0.00,CLR,,0.00,WeatherDisplay:10.37,2013-03-07 09:49:00,
2013-03-07 04:54:00,26.1,23.3,30.14,NNW,344,0.0,0.0,89,0.00,CLR,,0.00,WeatherDisplay:10.37,2013-03-07 09:54:00,
2013-03-07 04:59:00,26.3,23.5,30.14,NNW,344,0.0,0.0,89,0.00,CLR,,0.00,WeatherDisplay:10.37,2013-03-07 09:59:00,
2013-03-07 05:04:00,26.6,23.8,30.14,NNW,344,0.0,0.0,89,0.00,CLR,,0.00,WeatherDisplay:10.37,2013-03-07 10:04:00,
2013-03-07 05:09:00,26.6,23.5,30.15,NNW,344,2.0,2.0,88,0.00,CLR,,0.00,WeatherDisplay:10.37,2013-03-07 10:09:00,
2013-03-07 05:14:00,26.4,23.3,30.15,NNW,344,0.0,0.0,88,0.00,CLR,,0.00,WeatherDisplay:10.37,2013-03-07 10:14:00,
2013-03-07 05:19:00,26.4,23.3,30.15,NNW,344,0.0,0.0,88,0.00,CLR,,0.00,WeatherDisplay:10.37,2013-03-07 10:19:00,
2013-03-07 05:25:00,26.4,23.3,30.15,NNW,344,0.0,0.0,88,0.00,CLR,,0.00,WeatherDisplay:10.37,2013-03-07 10:25:00,
2013-03-07 05:30:00,26.3,23.0,30.15,NNW,344,1.1,1.1,87,0.00,CLR,,0.00,WeatherDisplay:10.37,2013-03-07 10:30:00,
2013-03-07 05:35:00,26.1,23.0,30.15,NNW,344,0.0,1.0,88,0.00,CLR,,0.00,WeatherDisplay:10.37,2013-03-07 10:35:00,
2013-03-07 05:40:00,26.1,23.0,30.15,NNW,344,0.0,1.0,88,0.00,CLR,,0.00,WeatherDisplay:10.37,2013-03-07 10:40:00,
2013-03-07 05:45:00,26.1,23.0,30.15,NNW,344,0.0,0.0,88,0.00,CLR,,0.00,WeatherDisplay:10.37,2013-03-07 10:45:00,
2013-03-07 05:50:00,26.0,22.9,30.15,NNW,344,0.0,0.0,88,0.00,CLR,,0.00,WeatherDisplay:10.37,2013-03-07 10:50:00,
2013-03-07 05:55:00,26.1,23.0,30.16,NNW,344,0.0,0.0,88,0.00,CLR,,0.00,WeatherDisplay:10.37,2013-03-07 10:55:00,
2013-03-07 06:00:00,26.1,23.0,30.15,NNW,344,0.0,0.0,88,0.00,CLR,,0.00,WeatherDisplay:10.37,2013-03-07 11:00:00,
2013-03-07 06:05:00,26.1,23.0,30.15,NNW,344,0.0,0.0,88,0.00,CLR,,0.00,WeatherDisplay:10.37,2013-03-07 11:05:00,
2013-03-07 06:10:00,26.1,23.0,30.16,NNW,344,0.0,0.0,88,0.00,CLR,,0.00,WeatherDisplay:10.37,2013-03-07 11:10:00,
2013-03-07 06:15:00,26.3,23.2,30.16,NNW,344,0.0,0.0,88,0.00,CLR,,0.00,WeatherDisplay:10.37,2013-03-07 11:15:00,
2013-03-07 06:20:00,26.1,23.0,30.17,NNW,344,1.1,0.0,88,0.00,CLR,,0.00,WeatherDisplay:10.37,2013-03-07 11:20:00,
2013-03-07 06:25:00,26.1,23.0,30.17,NNW,344,0.0,0.0,88,0.00,CLR,,0.00,WeatherDisplay:10.37,2013-03-07 11:25:00,
2013-03-07 06:30:00,26.0,22.9,30.17,NNW,344,1.1,0.0,88,0.00,CLR,,0.00,WeatherDisplay:10.37,2013-03-07 11:30:00,
2013-03-07 06:36:00,26.0,22.9,30.17,NNW,344,0.0,0.0,88,0.00,CLR,,0.00,WeatherDisplay:10.37,2013-03-07 11:36:00,
2013-03-07 06:41:00,26.0,22.9,30.17,NNW,344,1.1,1.1,88,0.00,CLR,,0.00,WeatherDisplay:10.37,2013-03-07 11:41:00,
2013-03-07 06:46:00,26.0,22.9,30.17,NNW,344,0.0,0.0,88,0.00,CLR,,0.00,WeatherDisplay:10.37,2013-03-07 11:46:00,
2013-03-07 06:51:00,25.8,22.7,30.18,NNW,344,0.0,0.0,88,0.00,CLR,,0.00,WeatherDisplay:10.37,2013-03-07 11:51:00,
2013-03-07 06:56:00,25.6,22.5,30.17,NNW,344,0.0,0.0,88,0.00,CLR,,0.00,WeatherDisplay:10.37,2013-03-07 11:56:00,
2013-03-07 07:01:00,25.6,22.8,30.17,NNW,344,0.0,0.0,89,0.00,CLR,,0.00,WeatherDisplay:10.37,2013-03-07 12:01:00,
2013-03-07 07:06:00,25.7,22.9,30.17,NNW,344,0.0,0.0,89,0.00,CLR,,0.00,WeatherDisplay:10.37,2013-03-07 12:06:00,
2013-03-07 07:11:00,25.8,23.0,30.17,NNW,344,0.0,0.0,89,0.00,CLR,,0.00,WeatherDisplay:10.37,2013-03-07 12:11:00,
2013-03-07 07:16:00,25.7,22.9,30.17,NNW,344,0.0,0.0,89,0.00,CLR,,0.00,WeatherDisplay:10.37,2013-03-07 12:16:00,
2013-03-07 07:21:00,25.7,22.9,30.18,NNW,344,0.0,0.0,89,0.00,CLR,,0.00,WeatherDisplay:10.37,2013-03-07 12:21:00,
2013-03-07 07:26:00,25.7,22.9,30.18,NNW,344,2.3,2.3,89,0.00,CLR,,0.00,WeatherDisplay:10.37,2013-03-07 12:26:00,
2013-03-07 07:31:00,26.1,23.6,30.18,NNW,344,1.1,1.1,90,0.00,CLR,,0.00,WeatherDisplay:10.37,2013-03-07 12:31:00,
2013-03-07 07:36:00,26.6,23.8,30.18,NNW,344,0.0,0.0,89,0.00,CLR,,0.00,WeatherDisplay:10.37,2013-03-07 12:36:00,
2013-03-07 07:41:00,26.6,23.8,30.18,NNW,344,0.0,0.0,89,0.00,CLR,,0.00,WeatherDisplay:10.37,2013-03-07 12:41:00,
2013-03-07 07:46:00,26.6,23.8,30.18,NW,319,0.0,0.0,89,0.00,CLR,,0.00,WeatherDisplay:10.37,2013-03-07 12:46:00,
2013-03-07 07:51:00,27.0,24.5,30.18,NW,319,0.0,0.0,90,0.00,CLR,,0.00,WeatherDisplay:10.37,2013-03-07 12:51:00,
2013-03-07 07:56:00,27.8,25.2,30.18,NW,319,0.0,0.0,90,0.00,CLR,,0.00,WeatherDisplay:10.37,2013-03-07 12:56:00,
2013-03-07 08:01:00,28.7,25.9,30.18,NW,318,0.0,0.0,89,0.00,CLR,,0.00,WeatherDisplay:10.37,2013-03-07 13:01:00,
2013-03-07 08:06:00,29.8,26.7,30.18,NNW,346,2.3,0.0,88,0.00,CLR,,0.00,WeatherDisplay:10.37,2013-03-07 13:06:00,
2013-03-07 08:11:00,30.9,26.9,30.18,North,351,1.1,0.0,85,0.00,CLR,,0.00,WeatherDisplay:10.37,2013-03-07 13:11:00,
2013-03-07 08:16:00,31.9,27.0,30.18,NNW,343,1.1,1.1,82,0.00,CLR,,0.00,WeatherDisplay:10.37,2013-03-07 13:16:00,
2013-03-07 08:22:00,32.7,26.9,30.18,NNW,336,3.5,3.5,79,0.00,CLR,,0.00,WeatherDisplay:10.37,2013-03-07 13:22:00,
2013-03-07 08:27:00,33.4,26.6,30.18,NNW,345,0.0,0.0,76,0.00,CLR,,0.00,WeatherDisplay:10.37,2013-03-07 13:27:00,
2013-03-07 08:32:00,34.0,27.2,30.18,NNW,347,4.6,4.6,76,0.00,CLR,,0.00,WeatherDisplay:10.37,2013-03-07 13:32:00,
2013-03-07 08:37:00,34.6,26.8,30.18,NW,308,1.1,1.1,73,0.00,CLR,,0.00,WeatherDisplay:10.37,2013-03-07 13:37:00,
2013-03-07 08:43:00,35.5,27.0,30.19,NNW,346,6.9,6.9,71,0.00,CLR,,0.00,WeatherDisplay:10.37,2013-03-07 13:43:00,
2013-03-07 08:48:00,35.9,26.7,30.19,West,279,5.8,5.8,69,0.00,CLR,,0.00,WeatherDisplay:10.37,2013-03-07 13:48:00,
2013-03-07 08:53:00,36.5,26.9,30.20,NW,311,3.5,3.5,68,0.00,CLR,,0.00,WeatherDisplay:10.37,2013-03-07 13:53:00,
2013-03-07 08:58:00,36.8,26.1,30.20,North,349,5.8,5.8,65,0.00,CLR,,0.00,WeatherDisplay:10.37,2013-03-07 13:58:00,
2013-03-07 09:03:00,37.0,26.3,30.20,NNW,340,5.8,5.8,65,0.00,CLR,,0.00,WeatherDisplay:10.37,2013-03-07 14:03:00,
2013-03-07 09:08:00,37.3,26.6,30.20,NNW,338,4.6,4.6,65,0.00,CLR,,0.00,WeatherDisplay:10.37,2013-03-07 14:08:00,
2013-03-07 09:13:00,37.8,26.3,30.20,NNE,20,5.8,5.8,63,0.00,CLR,,0.00,WeatherDisplay:10.37,2013-03-07 14:13:00,
2013-03-07 09:18:00,37.9,26.8,30.21,NNW,333,5.8,5.8,64,0.00,CLR,,0.00,WeatherDisplay:10.37,2013-03-07 14:18:00,
2013-03-07 09:23:00,38.3,26.8,30.21,NNW,329,4.6,4.6,63,0.00,CLR,,0.00,WeatherDisplay:10.37,2013-03-07 14:23:00,
2013-03-07 09:28:00,38.6,26.7,30.21,NNW,336,3.5,3.5,62,0.00,CLR,,0.00,WeatherDisplay:10.37,2013-03-07 14:28:00,
2013-03-07 09:33:00,38.8,27.3,30.21,WNW,290,3.5,3.5,63,0.00,CLR,,0.00,WeatherDisplay:10.37,2013-03-07 14:33:00,
2013-03-07 09:38:00,38.9,26.6,30.20,North,360,3.5,3.5,61,0.00,CLR,,0.00,WeatherDisplay:10.37,2013-03-07 14:38:00,
2013-03-07 09:44:00,39.1,26.4,30.20,North,351,3.5,3.5,60,0.00,CLR,,0.00,WeatherDisplay:10.37,2013-03-07 14:44:00,
2013-03-07 09:49:00,39.1,26.4,30.21,ENE,71,4.6,4.6,60,0.00,CLR,,0.00,WeatherDisplay:10.37,2013-03-07 14:49:00,
2013-03-07 09:54:00,39.6,26.8,30.20,NNE,13,7.0,7.0,60,0.00,CLR,,0.00,WeatherDisplay:10.37,2013-03-07 14:54:00,
2013-03-07 09:59:00,40.1,26.5,30.20,WNW,286,3.5,3.5,58,0.00,CLR,,0.00,WeatherDisplay:10.37,2013-03-07 14:59:00,
2013-03-07 10:04:00,39.9,26.3,30.20,NNE,15,3.5,3.5,58,0.00,CLR,,0.00,WeatherDisplay:10.37,2013-03-07 15:04:00,
2013-03-07 10:09:00,40.3,26.7,30.20,WNW,290,4.6,4.6,58,0.00,CLR,,0.00,WeatherDisplay:10.37,2013-03-07 15:09:00,
2013-03-07 10:14:00,40.6,26.1,30.20,NNW,345,5.8,5.8,56,0.00,CLR,,0.00,WeatherDisplay:10.37,2013-03-07 15:14:00,
2013-03-07 10:19:00,40.5,26.0,30.20,North,11,2.3,2.3,56,0.00,CLR,,0.00,WeatherDisplay:10.37,2013-03-07 15:19:00,
2013-03-07 10:24:00,40.8,26.7,30.20,NNE,17,3.5,3.5,57,0.00,CLR,,0.00,WeatherDisplay:10.37,2013-03-07 15:24:00,
2013-03-07 10:29:00,41.1,26.6,30.20,NNW,341,5.0,5.0,56,0.00,CLR,,0.00,WeatherDisplay:10.37,2013-03-07 15:29:00,
2013-03-07 10:34:00,41.5,27.0,30.20,NNW,341,9.2,9.2,56,0.00,CLR,,0.00,WeatherDisplay:10.37,2013-03-07 15:34:00,
2013-03-07 10:39:00,41.6,26.6,30.20,NE,41,3.5,3.5,55,0.00,CLR,,0.00,WeatherDisplay:10.37,2013-03-07 15:39:00,
2013-03-07 10:45:00,41.6,26.2,30.20,NW,324,4.6,4.6,54,0.00,CLR,,0.00,WeatherDisplay:10.37,2013-03-07 15:45:00,
2013-03-07 10:50:00,41.8,26.8,30.19,North,351,3.0,3.0,55,0.00,CLR,,0.00,WeatherDisplay:10.37,2013-03-07 15:50:00,
2013-03-07 10:55:00,42.3,26.8,30.18,NE,50,6.0,6.0,54,0.00,CLR,,0.00,WeatherDisplay:10.37,2013-03-07 15:55:00,
2013-03-07 11:00:00,42.5,25.6,30.18,NNE,25,2.0,10.0,51,0.00,CLR,,0.00,WeatherDisplay:10.37,2013-03-07 16:00:00,
2013-03-07 11:05:00,42.8,25.9,30.18,NNE,16,8.1,8.1,51,0.00,CLR,,0.00,WeatherDisplay:10.37,2013-03-07 16:05:00,
2013-03-07 11:10:00,42.9,26.5,30.18,North,358,8.0,12.0,52,0.00,CLR,,0.00,WeatherDisplay:10.37,2013-03-07 16:10:00,
2013-03-07 11:15:00,43.1,26.7,30.18,North,349,5.0,5.0,52,0.00,CLR,,0.00,WeatherDisplay:10.37,2013-03-07 16:15:00,
2013-03-07 11:20:00,43.8,25.9,30.18,NW,317,6.0,6.0,49,0.00,CLR,,0.00,WeatherDisplay:10.37,2013-03-07 16:20:00,
2013-03-07 11:25:00,43.9,25.5,30.18,NNW,342,4.6,4.6,48,0.00,CLR,,0.00,WeatherDisplay:10.37,2013-03-07 16:25:00,
2013-03-07 11:30:00,43.9,26.0,30.18,NNW,340,4.6,4.6,49,0.00,CLR,,0.00,WeatherDisplay:10.37,2013-03-07 16:30:00,
2013-03-07 11:35:00,44.5,26.0,30.18,West,278,4.6,4.6,48,0.00,CLR,,0.00,WeatherDisplay:10.37,2013-03-07 16:35:00,
2013-03-07 11:40:00,45.4,26.8,30.18,ENE,70,5.8,5.8,48,0.00,CLR,,0.00,WeatherDisplay:10.37,2013-03-07 16:40:00,
2013-03-07 11:45:00,45.4,26.3,30.18,NNE,22,5.8,5.8,47,0.00,CLR,,0.00,WeatherDisplay:10.37,2013-03-07 16:45:00,
2013-03-07 11:50:00,45.5,25.9,30.18,West,271,4.6,4.6,46,0.00,CLR,,0.00,WeatherDisplay:10.37,2013-03-07 16:50:00,
2013-03-07 11:55:00,45.5,26.4,30.18,NNE,21,6.9,6.9,47,0.00,CLR,,0.00,WeatherDisplay:10.37,2013-03-07 16:55:00,
2013-03-07 12:00:00,45.5,24.8,30.18,WNW,292,3.5,3.5,44,0.00,CLR,,0.00,WeatherDisplay:10.37,2013-03-07 17:00:00,
2013-03-07 12:05:00,45.8,25.1,30.18,West,269,3.5,3.5,44,0.00,CLR,,0.00,WeatherDisplay:10.37,2013-03-07 17:05:00,
2013-03-07 12:10:00,46.2,26.0,30.17,ESE,104,3.5,3.5,45,0.00,CLR,,0.00,WeatherDisplay:10.37,2013-03-07 17:10:00,
2013-03-07 12:15:00,46.5,26.3,30.17,NNW,329,3.5,3.5,45,0.00,CLR,,0.00,WeatherDisplay:10.37,2013-03-07 17:15:00,
2013-03-07 12:20:00,46.8,26.0,30.17,WNW,286,3.5,3.5,44,0.00,CLR,,0.00,WeatherDisplay:10.37,2013-03-07 17:20:00,
2013-03-07 12:26:00,47.3,26.5,30.17,West,273,3.0,3.0,44,0.00,CLR,,0.00,WeatherDisplay:10.37,2013-03-07 17:26:00,
2013-03-07 12:31:00,47.9,27.0,30.17,NE,36,6.9,6.9,44,0.00,CLR,,0.00,WeatherDisplay:10.37,2013-03-07 17:31:00,
2013-03-07 12:36:00,48.0,26.5,30.17,NE,35,6.9,6.9,43,0.00,CLR,,0.00,WeatherDisplay:10.37,2013-03-07 17:36:00,
2013-03-07 12:41:00,47.7,27.4,30.17,NNE,13,3.5,3.5,45,0.00,CLR,,0.00,WeatherDisplay:10.37,2013-03-07 17:41:00,
2013-03-07 12:46:00,47.9,26.5,30.17,NNE,33,3.5,3.5,43,0.00,CLR,,0.00,WeatherDisplay:10.37,2013-03-07 17:46:00,
2013-03-07 12:51:00,48.5,27.0,30.16,SW,217,5.0,5.0,43,0.00,CLR,,0.00,WeatherDisplay:10.37,2013-03-07 17:51:00,
2013-03-07 12:56:00,49.1,27.0,30.16,NW,311,4.6,4.6,42,0.00,CLR,,0.00,WeatherDisplay:10.37,2013-03-07 17:56:00,
2013-03-07 13:01:00,49.5,27.3,30.16,WSW,258,9.2,9.2,42,0.00,CLR,,0.00,WeatherDisplay:10.37,2013-03-07 18:01:00,
2013-03-07 13:06:00,49.4,26.7,30.15,ESE,103,1.1,0.0,41,0.00,CLR,,0.00,WeatherDisplay:10.37,2013-03-07 18:06:00,
2013-03-07 13:11:00,49.4,26.7,30.15,NW,323,4.6,4.6,41,0.00,CLR,,0.00,WeatherDisplay:10.37,2013-03-07 18:11:00,
2013-03-07 13:16:00,49.4,27.2,30.15,WSW,240,4.0,4.0,42,0.00,CLR,,0.00,WeatherDisplay:10.37,2013-03-07 18:16:00,
2013-03-07 13:21:00,49.5,27.3,30.15,NNE,12,4.6,4.6,42,0.00,CLR,,0.00,WeatherDisplay:10.37,2013-03-07 18:21:00,
2013-03-07 13:26:00,49.8,27.0,30.14,WNW,291,6.9,6.9,41,0.00,CLR,,0.00,WeatherDisplay:10.37,2013-03-07 18:26:00,
2013-03-07 13:31:00,50.1,29.6,30.14,NNW,335,5.0,5.0,45,0.00,CLR,,0.00,WeatherDisplay:10.37,2013-03-07 18:31:00,
2013-03-07 13:36:00,50.1,26.7,30.13,SE,138,3.5,3.5,40,0.00,CLR,,0.00,WeatherDisplay:10.37,2013-03-07 18:36:00,
2013-03-07 13:41:00,50.7,27.2,30.13,NW,315,5.0,5.0,40,0.00,CLR,,0.00,WeatherDisplay:10.37,2013-03-07 18:41:00,
2013-03-07 13:47:00,51.3,27.2,30.13,NW,315,3.5,3.5,39,0.00,CLR,,0.00,WeatherDisplay:10.37,2013-03-07 18:47:00,
2013-03-07 13:52:00,51.1,28.2,30.13,North,360,5.0,5.0,41,0.00,CLR,,0.00,WeatherDisplay:10.37,2013-03-07 18:52:00,
2013-03-07 13:57:00,51.1,26.3,30.13,NNW,331,5.8,5.8,38,0.00,CLR,,0.00,WeatherDisplay:10.37,2013-03-07 18:57:00,
2013-03-07 14:02:00,51.6,28.0,30.13,NW,306,3.5,3.5,40,0.00,CLR,,0.00,WeatherDisplay:10.37,2013-03-07 19:02:00,
2013-03-07 14:07:00,51.9,26.4,30.12,North,9,3.5,3.5,37,0.00,CLR,,0.00,WeatherDisplay:10.37,2013-03-07 19:07:00,
2013-03-07 14:12:00,52.3,26.8,30.12,NNW,338,5.8,5.8,37,0.00,CLR,,0.00,WeatherDisplay:10.37,2013-03-07 19:12:00,
2013-03-07 14:17:00,52.6,26.4,30.12,North,351,6.0,6.0,36,0.00,CLR,,0.00,WeatherDisplay:10.37,2013-03-07 19:17:00,
2013-03-07 14:23:00,52.6,26.4,30.12,NNE,32,5.8,5.8,36,0.00,CLR,,0.00,WeatherDisplay:10.37,2013-03-07 19:23:00,
2013-03-07 14:28:00,52.8,27.2,30.12,North,351,4.6,4.6,37,0.00,CLR,,0.00,WeatherDisplay:10.37,2013-03-07 19:28:00,
2013-03-07 14:33:00,52.6,26.4,30.12,SE,134,3.5,3.5,36,0.00,CLR,,0.00,WeatherDisplay:10.37,2013-03-07 19:33:00,
2013-03-07 14:38:00,52.9,27.3,30.12,WSW,243,3.5,3.5,37,0.00,CLR,,0.00,WeatherDisplay:10.37,2013-03-07 19:38:00,
2013-03-07 14:43:00,53.5,27.2,30.12,West,261,3.5,3.5,36,0.00,CLR,,0.00,WeatherDisplay:10.37,2013-03-07 19:43:00,
2013-03-07 14:48:00,54.1,28.4,30.12,NNE,25,3.5,3.5,37,0.00,CLR,,0.00,WeatherDisplay:10.37,2013-03-07 19:48:00,
2013-03-07 14:53:00,54.2,27.1,30.12,North,360,6.9,6.9,35,0.00,CLR,,0.00,WeatherDisplay:10.37,2013-03-07 19:53:00,
2013-03-07 14:58:00,54.2,26.4,30.12,NW,311,6.9,6.9,34,0.00,CLR,,0.00,WeatherDisplay:10.37,2013-03-07 19:58:00,
2013-03-07 15:03:00,54.1,26.3,30.12,NE,55,4.0,4.0,34,0.00,CLR,,0.00,WeatherDisplay:10.37,2013-03-07 20:03:00,
2013-03-07 15:08:00,53.9,26.1,30.12,West,273,3.5,3.5,34,0.00,CLR,,0.00,WeatherDisplay:10.37,2013-03-07 20:08:00,
2013-03-07 15:13:00,54.2,27.1,30.11,NNE,15,3.5,3.5,35,0.00,CLR,,0.00,WeatherDisplay:10.37,2013-03-07 20:13:00,
2013-03-07 15:18:00,54.5,26.0,30.11,NNW,342,3.5,3.5,33,0.00,CLR,,0.00,WeatherDisplay:10.37,2013-03-07 20:18:00,
2013-03-07 15:23:00,55.1,27.9,30.11,NW,318,3.5,3.5,35,0.00,CLR,,0.00,WeatherDisplay:10.37,2013-03-07 20:23:00,
2013-03-07 15:28:00,55.4,26.7,30.11,NNE,22,3.5,3.5,33,0.00,CLR,,0.00,WeatherDisplay:10.37,2013-03-07 20:28:00,
2013-03-07 15:33:00,55.4,26.0,30.11,SSW,210,4.6,4.6,32,0.00,CLR,,0.00,WeatherDisplay:10.37,2013-03-07 20:33:00,
2013-03-07 15:38:00,55.9,27.9,30.11,WSW,253,3.5,0.0,34,0.00,CLR,,0.00,WeatherDisplay:10.37,2013-03-07 20:38:00,
2013-03-07 15:43:00,56.3,26.0,30.11,NNE,24,1.1,1.1,31,0.00,CLR,,0.00,WeatherDisplay:10.37,2013-03-07 20:43:00,
2013-03-07 15:49:00,56.5,27.0,30.11,SW,218,3.5,3.5,32,0.00,CLR,,0.00,WeatherDisplay:10.37,2013-03-07 20:49:00,
2013-03-07 15:53:00,56.9,27.3,30.11,WNW,287,3.5,3.5,32,0.00,CLR,,0.00,WeatherDisplay:10.37,2013-03-07 20:53:00,
2013-03-07 15:59:00,56.9,27.3,30.11,WNW,287,0.0,0.0,32,0.00,CLR,,0.00,WeatherDisplay:10.37,2013-03-07 20:59:00,
2013-03-07 16:04:00,56.6,26.3,30.11,South,191,2.3,0.0,31,0.00,CLR,,0.00,WeatherDisplay:10.37,2013-03-07 21:04:00,
2013-03-07 16:09:00,56.7,27.1,30.11,South,191,1.1,0.0,32,0.00,CLR,,0.00,WeatherDisplay:10.37,2013-03-07 21:09:00,
2013-03-07 16:14:00,56.5,27.7,30.11,North,9,3.5,3.5,33,0.00,CLR,,0.00,WeatherDisplay:10.37,2013-03-07 21:14:00,
2013-03-07 16:19:00,56.5,27.0,30.11,WNW,292,7.0,7.0,32,0.00,CLR,,0.00,WeatherDisplay:10.37,2013-03-07 21:19:00,
2013-03-07 16:24:00,56.2,26.7,30.11,NNE,32,3.5,3.5,32,0.00,CLR,,0.00,WeatherDisplay:10.37,2013-03-07 21:24:00,
2013-03-07 16:29:00,56.2,27.4,30.11,WNW,292,4.0,4.0,33,0.00,CLR,,0.00,WeatherDisplay:10.37,2013-03-07 21:29:00,
2013-03-07 16:34:00,56.5,27.7,30.11,WNW,298,2.3,2.3,33,0.00,CLR,,0.00,WeatherDisplay:10.37,2013-03-07 21:34:00,
2013-03-07 16:39:00,56.2,27.4,30.11,NNE,14,3.5,3.5,33,0.00,CLR,,0.00,WeatherDisplay:10.37,2013-03-07 21:39:00,
2013-03-07 16:44:00,55.9,26.4,30.11,NE,36,3.5,3.5,32,0.00,CLR,,0.00,WeatherDisplay:10.37,2013-03-07 21:44:00,
2013-03-07 16:49:00,55.9,26.4,30.11,NE,34,0.0,0.0,32,0.00,CLR,,0.00,WeatherDisplay:10.37,2013-03-07 21:49:00,
2013-03-07 16:54:00,55.9,26.4,30.11,North,360,9.2,9.2,32,0.00,CLR,,0.00,WeatherDisplay:10.37,2013-03-07 21:54:00,
2013-03-07 16:59:00,55.6,26.9,30.11,NE,36,3.5,3.5,33,0.00,CLR,,0.00,WeatherDisplay:10.37,2013-03-07 21:59:00,
2013-03-07 17:05:00,55.7,26.3,30.11,NNE,24,3.5,3.5,32,0.00,CLR,,0.00,WeatherDisplay:10.37,2013-03-07 22:05:00,
2013-03-07 17:10:00,55.6,26.2,30.11,NNE,24,3.5,3.5,32,0.00,CLR,,0.00,WeatherDisplay:10.37,2013-03-07 22:10:00,
2013-03-07 17:15:00,55.4,26.7,30.11,NNE,24,5.8,5.8,33,0.00,CLR,,0.00,WeatherDisplay:10.37,2013-03-07 22:15:00,
2013-03-07 17:20:00,55.1,26.5,30.11,ENE,57,3.5,3.5,33,0.00,CLR,,0.00,WeatherDisplay:10.37,2013-03-07 22:20:00,
2013-03-07 17:25:00,55.1,25.7,30.11,NNE,30,1.1,1.1,32,0.00,CLR,,0.00,WeatherDisplay:10.37,2013-03-07 22:25:00,
2013-03-07 17:30:00,55.1,26.5,30.12,NNE,30,0.0,0.0,33,0.00,CLR,,0.00,WeatherDisplay:10.37,2013-03-07 22:30:00,
2013-03-07 17:35:00,55.4,26.0,30.12,NNE,30,0.0,0.0,32,0.00,CLR,,0.00,WeatherDisplay:10.37,2013-03-07 22:35:00,
2013-03-07 17:40:00,55.6,26.2,30.12,NNE,30,0.0,0.0,32,0.00,CLR,,0.00,WeatherDisplay:10.37,2013-03-07 22:40:00,
2013-03-07 17:45:00,55.6,26.9,30.12,NNE,31,1.1,1.1,33,0.00,CLR,,0.00,WeatherDisplay:10.37,2013-03-07 22:45:00,
2013-03-07 17:50:00,55.1,27.2,30.13,NNE,29,3.5,3.5,34,0.00,CLR,,0.00,WeatherDisplay:10.37,2013-03-07 22:50:00,
2013-03-07 17:55:00,54.7,26.8,30.12,NNE,28,1.1,1.1,34,0.00,CLR,,0.00,WeatherDisplay:10.37,2013-03-07 22:55:00,
2013-03-07 18:00:00,54.4,27.3,30.13,NNE,28,2.0,2.0,35,0.00,CLR,,0.00,WeatherDisplay:10.37,2013-03-07 23:00:00,
2013-03-07 18:05:00,54.1,27.7,30.13,NNE,28,0.0,0.0,36,0.00,CLR,,0.00,WeatherDisplay:10.37,2013-03-07 23:05:00,
2013-03-07 18:10:00,53.8,28.8,30.13,NNE,28,0.0,0.0,38,0.00,CLR,,0.00,WeatherDisplay:10.37,2013-03-07 23:10:00,
2013-03-07 18:15:00,53.2,29.5,30.13,NNE,28,0.0,0.0,40,0.00,CLR,,0.00,WeatherDisplay:10.37,2013-03-07 23:15:00,
2013-03-07 18:20:00,52.3,29.3,30.13,NNE,28,3.5,3.5,41,0.00,CLR,,0.00,WeatherDisplay:10.37,2013-03-07 23:20:00,
2013-03-07 18:25:00,51.7,28.7,30.14,NNE,31,2.0,2.0,41,0.00,CLR,,0.00,WeatherDisplay:10.37,2013-03-07 23:25:00,
2013-03-07 18:30:00,51.1,28.8,30.14,NNE,31,0.0,0.0,42,0.00,CLR,,0.00,WeatherDisplay:10.37,2013-03-07 23:30:00,
2013-03-07 18:35:00,50.7,29.0,30.14,NNE,31,0.0,0.0,43,0.00,CLR,,0.00,WeatherDisplay:10.37,2013-03-07 23:35:00,
2013-03-07 18:40:00,50.1,29.6,30.14,NNE,31,1.0,1.0,45,0.00,CLR,,0.00,WeatherDisplay:10.37,2013-03-07 23:40:00,
2013-03-07 18:45:00,49.6,28.6,30.15,NNE,24,4.0,4.0,44,0.00,CLR,,0.00,WeatherDisplay:10.37,2013-03-07 23:45:00,
2013-03-07 18:50:00,49.4,27.8,30.15,NNE,28,3.5,3.5,43,0.00,CLR,,0.00,WeatherDisplay:10.37,2013-03-07 23:50:00,
2013-03-07 18:55:00,48.8,28.4,30.15,NNE,26,2.0,2.0,45,0.00,CLR,,0.00,WeatherDisplay:10.37,2013-03-07 23:55:00,
2013-03-07 19:00:00,48.0,27.6,30.16,NNE,13,3.5,3.5,45,0.00,CLR,,0.00,WeatherDisplay:10.37,2013-03-08 00:00:00,
2013-03-07 19:05:00,47.4,28.2,30.16,NNE,13,1.1,0.0,47,0.00,CLR,,0.00,WeatherDisplay:10.37,2013-03-08 00:05:00,
2013-03-07 19:10:00,47.0,26.2,30.16,North,360,6.9,6.9,44,0.00,CLR,,0.00,WeatherDisplay:10.37,2013-03-08 00:10:00,
2013-03-07 19:15:00,47.6,25.6,30.16,NNE,22,5.8,5.8,42,0.00,CLR,,0.00,WeatherDisplay:10.37,2013-03-08 00:15:00,
2013-03-07 19:20:00,47.6,25.6,30.16,North,360,5.8,5.8,42,0.00,CLR,,0.00,WeatherDisplay:10.37,2013-03-08 00:20:00,
2013-03-07 19:25:00,47.4,24.9,30.16,North,5,12.7,12.7,41,0.00,CLR,,0.00,WeatherDisplay:10.37,2013-03-08 00:25:00,
2013-03-07 19:30:00,47.3,24.8,30.16,NNE,19,5.8,5.8,41,0.00,CLR,,0.00,WeatherDisplay:10.37,2013-03-08 00:30:00,
2013-03-07 19:35:00,46.8,24.3,30.17,NNE,15,10.0,10.0,41,0.00,CLR,,0.00,WeatherDisplay:10.37,2013-03-08 00:35:00,
2013-03-07 19:40:00,46.5,24.0,30.17,NE,44,6.9,6.9,41,0.00,CLR,,0.00,WeatherDisplay:10.37,2013-03-08 00:40:00,
2013-03-07 19:45:00,46.2,23.8,30.17,NE,41,5.8,5.8,41,0.00,CLR,,0.00,WeatherDisplay:10.37,2013-03-08 00:45:00,
2013-03-07 19:50:00,45.8,24.0,30.17,NNE,22,5.0,7.0,42,0.00,CLR,,0.00,WeatherDisplay:10.37,2013-03-08 00:50:00,
2013-03-07 19:51:00,45.7,23.9,30.17,NE,43,5.8,5.8,42,0.00,CLR,,0.00,WeatherDisplay:10.37,2013-03-08 00:51:00,
2013-03-07 19:55:00,45.4,24.2,30.17,NNE,22,5.0,8.0,43,0.00,CLR,,0.00,WeatherDisplay:10.37,2013-03-08 00:55:00,
2013-03-07 19:56:00,45.4,24.2,30.18,NE,36,6.9,6.9,43,0.00,CLR,,0.00,WeatherDisplay:10.37,2013-03-08 00:56:00,
2013-03-07 20:00:00,45.1,24.5,30.18,NNE,22,2.0,10.0,44,0.00,CLR,,0.00,WeatherDisplay:10.37,2013-03-08 01:00:00,
2013-03-07 20:01:00,45.1,24.5,30.18,NE,56,5.8,5.8,44,0.00,CLR,,0.00,WeatherDisplay:10.37,2013-03-08 01:01:00,
2013-03-07 20:05:00,44.9,24.3,30.17,NNE,20,1.0,6.0,44,0.00,CLR,,0.00,WeatherDisplay:10.37,2013-03-08 01:05:00,
2013-03-07 20:06:00,44.9,24.3,30.17,NNE,27,3.5,3.5,44,0.00,CLR,,0.00,WeatherDisplay:10.37,2013-03-08 01:06:00,
2013-03-07 20:10:00,44.6,24.0,30.18,NNE,19,1.0,5.0,44,0.00,CLR,,0.00,WeatherDisplay:10.37,2013-03-08 01:10:00,
2013-03-07 20:11:00,44.6,24.0,30.18,NNE,18,3.5,3.5,44,0.00,CLR,,0.00,WeatherDisplay:10.37,2013-03-08 01:11:00,
2013-03-07 20:15:00,44.5,23.9,30.18,NNE,18,0.0,4.0,44,0.00,CLR,,0.00,WeatherDisplay:10.37,2013-03-08 01:15:00,
2013-03-07 20:16:00,44.3,24.3,30.18,NE,42,2.0,2.0,45,0.00,CLR,,0.00,WeatherDisplay:10.37,2013-03-08 01:16:00,
2013-03-07 20:20:00,44.2,24.7,30.19,NNE,14,0.0,2.0,46,0.00,CLR,,0.00,WeatherDisplay:10.37,2013-03-08 01:20:00,
2013-03-07 20:21:00,44.1,24.6,30.19,NNE,24,0.0,0.0,46,0.00,CLR,,0.00,WeatherDisplay:10.37,2013-03-08 01:21:00,
2013-03-07 20:25:00,43.8,24.3,30.19,NNE,20,0.0,1.0,46,0.00,CLR,,0.00,WeatherDisplay:10.37,2013-03-08 01:25:00,
2013-03-07 20:26:00,43.6,24.7,30.19,NNE,24,0.0,0.0,47,0.00,CLR,,0.00,WeatherDisplay:10.37,2013-03-08 01:26:00,
2013-03-07 20:30:00,43.3,24.9,30.19,NNE,22,0.0,0.0,48,0.00,CLR,,0.00,WeatherDisplay:10.37,2013-03-08 01:30:00,
2013-03-07 20:31:00,43.2,24.8,30.19,NNE,24,0.0,0.0,48,0.00,CLR,,0.00,WeatherDisplay:10.37,2013-03-08 01:31:00,
2013-03-07 20:35:00,42.8,25.4,30.19,NNE,22,0.0,0.0,50,0.00,CLR,,0.00,WeatherDisplay:10.37,2013-03-08 01:35:00,
2013-03-07 20:36:00,42.6,25.2,30.20,NNE,24,0.0,0.0,50,0.00,CLR,,0.00,WeatherDisplay:10.37,2013-03-08 01:36:00,
2013-03-07 20:40:00,42.2,25.8,30.20,NNE,18,2.0,5.0,52,0.00,CLR,,0.00,WeatherDisplay:10.37,2013-03-08 01:40:00,
2013-03-07 20:41:00,42.1,25.7,30.20,NE,49,3.5,3.5,52,0.00,CLR,,0.00,WeatherDisplay:10.37,2013-03-08 01:41:00,
2013-03-07 20:45:00,41.9,26.0,30.21,NNE,26,1.0,3.0,53,0.00,CLR,,0.00,WeatherDisplay:10.37,2013-03-08 01:45:00,
2013-03-07 20:46:00,41.9,26.0,30.21,NNE,17,3.5,3.5,53,0.00,CLR,,0.00,WeatherDisplay:10.37,2013-03-08 01:46:00,
2013-03-07 20:50:00,41.9,26.0,30.21,NNE,29,2.0,4.0,53,0.00,CLR,,0.00,WeatherDisplay:10.37,2013-03-08 01:50:00,
2013-03-07 20:51:00,41.8,25.9,30.21,NNE,16,1.1,0.0,53,0.00,CLR,,0.00,WeatherDisplay:10.37,2013-03-08 01:51:00,
2013-03-07 20:55:00,41.8,26.4,30.21,NNE,22,3.0,7.0,54,0.00,CLR,,0.00,WeatherDisplay:10.37,2013-03-08 01:55:00,
2013-03-07 20:56:00,41.8,25.9,30.21,NNW,344,3.0,3.0,53,0.00,CLR,,0.00,WeatherDisplay:10.37,2013-03-08 01:56:00,
2013-03-07 21:00:00,41.6,25.7,30.21,NNE,20,0.0,8.0,53,0.00,CLR,,0.00,WeatherDisplay:10.37,2013-03-08 02:00:00,
2013-03-07 21:01:00,41.6,25.7,30.21,NE,51,5.0,5.0,53,0.00,CLR,,0.00,WeatherDisplay:10.37,2013-03-08 02:01:00,
2013-03-07 21:05:00,41.5,25.6,30.21,NNE,25,2.0,5.0,53,0.00,CLR,,0.00,WeatherDisplay:10.37,2013-03-08 02:05:00,
2013-03-07 21:06:00,41.5,25.6,30.21,ENE,76,8.1,8.1,53,0.00,CLR,,0.00,WeatherDisplay:10.37,2013-03-08 02:06:00,
2013-03-07 21:10:00,41.2,25.3,30.21,NNE,29,3.0,8.0,53,0.00,CLR,,0.00,WeatherDisplay:10.37,2013-03-08 02:10:00,
2013-03-07 21:11:00,41.2,25.3,30.21,NNE,27,3.5,3.5,53,0.00,CLR,,0.00,WeatherDisplay:10.37,2013-03-08 02:11:00,
2013-03-07 21:15:00,41.1,25.7,30.21,NNE,30,0.0,6.0,54,0.00,CLR,,0.00,WeatherDisplay:10.37,2013-03-08 02:15:00,
2013-03-07 21:16:00,40.9,25.5,30.21,SE,136,2.3,2.3,54,0.00,CLR,,0.00,WeatherDisplay:10.37,2013-03-08 02:16:00,
2013-03-07 21:21:00,40.6,25.2,30.21,NE,50,3.5,3.5,54,0.00,CLR,,0.00,WeatherDisplay:10.37,2013-03-08 02:21:00,
2013-03-07 21:25:00,40.5,25.1,30.21,ENE,59,2.0,4.0,54,0.00,CLR,,0.00,WeatherDisplay:10.37,2013-03-08 02:25:00,
2013-03-07 21:27:00,40.5,25.1,30.22,NNE,17,3.5,3.5,54,0.00,CLR,,0.00,WeatherDisplay:10.37,2013-03-08 02:27:00,
2013-03-07 21:30:00,40.3,25.0,30.22,East,80,3.0,6.0,54,0.00,CLR,,0.00,WeatherDisplay:10.37,2013-03-08 02:30:00,
2013-03-07 21:32:00,40.2,25.3,30.22,North,350,4.0,4.0,55,0.00,CLR,,0.00,WeatherDisplay:10.37,2013-03-08 02:32:00,
2013-03-07 21:37:00,39.9,25.0,30.22,ENE,77,6.9,6.9,55,0.00,CLR,,0.00,WeatherDisplay:10.37,2013-03-08 02:37:00,
2013-03-07 21:40:00,39.8,24.9,30.22,NE,45,1.0,9.0,55,0.00,CLR,,0.00,WeatherDisplay:10.37,2013-03-08 02:40:00,
2013-03-07 21:42:00,39.6,24.7,30.22,ESE,113,3.5,3.5,55,0.00,CLR,,0.00,WeatherDisplay:10.37,2013-03-08 02:42:00,
2013-03-07 21:45:00,39.5,24.7,30.22,ENE,62,2.0,4.0,55,0.00,CLR,,0.00,WeatherDisplay:10.37,2013-03-08 02:45:00,
2013-03-07 21:47:00,39.3,24.5,30.22,East,98,3.0,3.0,55,0.00,CLR,,0.00,WeatherDisplay:10.37,2013-03-08 02:47:00,
2013-03-07 21:50:00,39.2,24.4,30.22,East,80,0.0,3.0,55,0.00,CLR,,0.00,WeatherDisplay:10.37,2013-03-08 02:50:00,
2013-03-07 21:52:00,39.1,24.7,30.22,ENE,74,2.3,0.0,56,0.00,CLR,,0.00,WeatherDisplay:10.37,2013-03-08 02:52:00,
2013-03-07 21:55:00,38.9,24.5,30.22,ENE,70,0.0,4.0,56,0.00,CLR,,0.00,WeatherDisplay:10.37,2013-03-08 02:55:00,
2013-03-07 21:57:00,38.8,24.4,30.22,ENE,61,3.5,3.5,56,0.00,CLR,,0.00,WeatherDisplay:10.37,2013-03-08 02:57:00,
2013-03-07 22:00:00,38.6,24.7,30.22,NE,49,1.0,3.0,57,0.00,CLR,,0.00,WeatherDisplay:10.37,2013-03-08 03:00:00,
2013-03-07 22:02:00,38.6,24.7,30.22,East,86,1.1,1.1,57,0.00,CLR,,0.00,WeatherDisplay:10.37,2013-03-08 03:02:00,
2013-03-07 22:05:00,38.5,24.6,30.22,NE,52,1.0,4.0,57,0.00,CLR,,0.00,WeatherDisplay:10.37,2013-03-08 03:05:00,
2013-03-07 22:07:00,38.5,24.6,30.22,ENE,76,1.1,0.0,57,0.00,CLR,,0.00,WeatherDisplay:10.37,2013-03-08 03:07:00,
2013-03-07 22:10:00,38.3,24.4,30.22,ENE,65,1.0,3.0,57,0.00,CLR,,0.00,WeatherDisplay:10.37,2013-03-08 03:10:00,
2013-03-07 22:12:00,38.2,24.3,30.22,NNE,19,2.3,2.3,57,0.00,CLR,,0.00,WeatherDisplay:10.37,2013-03-08 03:12:00,
2013-03-07 22:15:00,38.2,24.3,30.22,NE,38,0.0,4.0,57,0.00,CLR,,0.00,WeatherDisplay:10.37,2013-03-08 03:15:00,
2013-03-07 22:17:00,38.0,24.5,30.22,NNE,22,3.5,3.5,58,0.00,CLR,,0.00,WeatherDisplay:10.37,2013-03-08 03:17:00,
2013-03-07 22:20:00,37.9,24.0,30.22,NNE,33,1.0,4.0,57,0.00,CLR,,0.00,WeatherDisplay:10.37,2013-03-08 03:20:00,
2013-03-07 22:22:00,37.9,24.0,30.22,SE,126,2.0,0.0,57,0.00,CLR,,0.00,WeatherDisplay:10.37,2013-03-08 03:22:00,
2013-03-07 22:25:00,37.8,23.9,30.22,NE,50,1.0,3.0,57,0.00,CLR,,0.00,WeatherDisplay:10.37,2013-03-08 03:25:00,
2013-03-07 22:27:00,37.6,23.7,30.22,East,99,0.0,0.0,57,0.00,CLR,,0.00,WeatherDisplay:10.37,2013-03-08 03:27:00,
2013-03-07 22:30:00,37.6,23.7,30.22,ENE,78,0.0,1.0,57,0.00,CLR,,0.00,WeatherDisplay:10.37,2013-03-08 03:30:00,
2013-03-07 22:32:00,37.5,24.1,30.22,NNE,17,4.0,4.0,58,0.00,CLR,,0.00,WeatherDisplay:10.37,2013-03-08 03:32:00,
2013-03-07 22:35:00,37.3,23.9,30.22,NE,53,2.0,5.0,58,0.00,CLR,,0.00,WeatherDisplay:10.37,2013-03-08 03:35:00,
2013-03-07 22:37:00,37.3,23.4,30.22,NE,40,3.5,3.5,57,0.00,CLR,,0.00,WeatherDisplay:10.37,2013-03-08 03:37:00,
2013-03-07 22:40:00,37.3,23.9,30.22,NE,44,0.0,4.0,58,0.00,CLR,,0.00,WeatherDisplay:10.37,2013-03-08 03:40:00,
2013-03-07 22:42:00,37.3,23.4,30.22,ESE,108,1.1,0.0,57,0.00,CLR,,0.00,WeatherDisplay:10.37,2013-03-08 03:42:00,
2013-03-07 22:45:00,37.2,23.4,30.22,East,91,2.0,4.0,57,0.00,CLR,,0.00,WeatherDisplay:10.37,2013-03-08 03:45:00,
2013-03-07 22:47:00,37.2,23.4,30.22,East,93,0.0,0.0,57,0.00,CLR,,0.00,WeatherDisplay:10.37,2013-03-08 03:47:00,
2013-03-07 22:50:00,37.0,23.6,30.23,East,96,0.0,4.0,58,0.00,CLR,,0.00,WeatherDisplay:10.37,2013-03-08 03:50:00,
2013-03-07 22:52:00,37.0,23.6,30.22,ESE,103,2.3,0.0,58,0.00,CLR,,0.00,WeatherDisplay:10.37,2013-03-08 03:52:00,
2013-03-07 22:55:00,36.9,23.1,30.22,NE,46,1.0,4.0,57,0.00,CLR,,0.00,WeatherDisplay:10.37,2013-03-08 03:55:00,
2013-03-07 22:57:00,36.9,23.1,30.23,SE,132,1.1,1.1,57,0.00,CLR,,0.00,WeatherDisplay:10.37,2013-03-08 03:57:00,
2013-03-07 23:00:00,36.8,23.4,30.22,ENE,69,0.0,2.0,58,0.00,CLR,,0.00,WeatherDisplay:10.37,2013-03-08 04:00:00,
2013-03-07 23:02:00,36.6,23.2,30.22,NE,34,1.1,0.0,58,0.00,CLR,,0.00,WeatherDisplay:10.37,2013-03-08 04:02:00,
2013-03-07 23:05:00,36.6,22.8,30.22,SE,127,0.0,3.0,57,0.00,CLR,,0.00,WeatherDisplay:10.37,2013-03-08 04:05:00,
2013-03-07 23:08:00,36.5,23.1,30.22,SE,142,1.1,0.0,58,0.00,CLR,,0.00,WeatherDisplay:10.37,2013-03-08 04:08:00,
2013-03-07 23:10:00,36.5,23.1,30.22,ESE,103,0.0,2.0,58,0.00,CLR,,0.00,WeatherDisplay:10.37,2013-03-08 04:10:00,
2013-03-07 23:13:00,36.3,22.9,30.22,East,92,3.5,3.5,58,0.00,CLR,,0.00,WeatherDisplay:10.37,2013-03-08 04:13:00,
2013-03-07 23:15:00,36.2,22.8,30.23,East,92,2.0,4.0,58,0.00,CLR,,0.00,WeatherDisplay:10.37,2013-03-08 04:15:00,
2013-03-07 23:18:00,36.2,22.8,30.23,SE,132,1.1,1.1,58,0.00,CLR,,0.00,WeatherDisplay:10.37,2013-03-08 04:18:00,
2013-03-07 23:20:00,36.0,22.6,30.23,East,97,3.0,6.0,58,0.00,CLR,,0.00,WeatherDisplay:10.37,2013-03-08 04:20:00,
2013-03-07 23:23:00,36.0,22.6,30.23,ENE,57,3.5,3.5,58,0.00,CLR,,0.00,WeatherDisplay:10.37,2013-03-08 04:23:00,
2013-03-07 23:25:00,35.9,22.5,30.23,East,86,0.0,3.0,58,0.00,CLR,,0.00,WeatherDisplay:10.37,2013-03-08 04:25:00,
2013-03-07 23:28:00,35.9,22.5,30.23,NW,315,1.1,1.1,58,0.00,CLR,,0.00,WeatherDisplay:10.37,2013-03-08 04:28:00,
2013-03-07 23:30:00,35.8,22.9,30.23,ESE,112,0.0,3.0,59,0.00,CLR,,0.00,WeatherDisplay:10.37,2013-03-08 04:30:00,
2013-03-07 23:33:00,35.8,22.9,30.23,ENE,63,1.1,1.1,59,0.00,CLR,,0.00,WeatherDisplay:10.37,2013-03-08 04:33:00,
2013-03-07 23:35:00,35.6,22.3,30.23,ESE,108,0.0,2.0,58,0.00,CLR,,0.00,WeatherDisplay:10.37,2013-03-08 04:35:00,
2013-03-07 23:38:00,35.6,22.3,30.23,ENE,76,1.1,0.0,58,0.00,CLR,,0.00,WeatherDisplay:10.37,2013-03-08 04:38:00,
2013-03-07 23:40:00,35.6,22.3,30.24,ENE,70,1.0,3.0,58,0.00,CLR,,0.00,WeatherDisplay:10.37,2013-03-08 04:40:00,
2013-03-07 23:43:00,35.6,22.3,30.24,NNE,22,2.3,0.0,58,0.00,CLR,,0.00,WeatherDisplay:10.37,2013-03-08 04:43:00,
2013-03-07 23:45:00,35.6,22.3,30.24,ENE,72,2.0,5.0,58,0.00,CLR,,0.00,WeatherDisplay:10.37,2013-03-08 04:45:00,
2013-03-07 23:48:00,35.8,22.0,30.24,SE,136,3.5,3.5,57,0.00,CLR,,0.00,WeatherDisplay:10.37,2013-03-08 04:48:00,
2013-03-07 23:50:00,35.8,22.0,30.23,East,80,1.0,6.0,57,0.00,CLR,,0.00,WeatherDisplay:10.37,2013-03-08 04:50:00,
2013-03-07 23:53:00,35.8,22.0,30.23,ESE,112,4.6,4.6,57,0.00,CLR,,0.00,WeatherDisplay:10.37,2013-03-08 04:53:00,
2013-03-07 23:55:00,35.8,22.0,30.23,East,82,1.0,5.0,57,0.00,CLR,,0.00,WeatherDisplay:10.37,2013-03-08 04:55:00,
2013-03-07 23:58:00,35.8,22.0,30.24,ESE,113,4.6,4.6,57,0.00,CLR,,0.00,WeatherDisplay:10.37,2013-03-08 04:58:00,